createdAt,value
2022-07-26T00:00:10.686Z,4.13
2022-07-26T00:02:37.219Z,5.35
2022-07-26T00:05:04.523Z,3.22
2022-07-26T00:07:36.048Z,4.45
2022-07-26T00:10:04.579Z,4.82
2022-07-26T00:12:31.241Z,5.30
2022-07-26T00:14:57.808Z,4.28
2022-07-26T00:17:24.447Z,6.10
2022-07-26T00:19:50.913Z,3.72
2022-07-26T00:22:35.810Z,4.00
2022-07-26T00:25:06.169Z,6.50
2022-07-26T00:27:36.856Z,2.50
2022-07-26T00:30:06.299Z,4.75
2022-07-26T00:32:32.974Z,6.43
2022-07-26T00:35:01.976Z,6.95
2022-07-26T00:37:28.673Z,7.65
2022-07-26T00:39:55.379Z,5.68
2022-07-26T00:42:22.009Z,4.93
2022-07-26T00:44:48.982Z,3.53
2022-07-26T00:47:16.008Z,5.90
2022-07-26T00:49:43.197Z,5.03
2022-07-26T00:52:10.636Z,5.13
2022-07-26T00:54:39.771Z,3.25
2022-07-26T00:57:06.823Z,5.95
2022-07-26T00:59:33.373Z,4.82
2022-07-26T01:02:00.194Z,3.42
2022-07-26T01:04:27.472Z,8.32
2022-07-26T01:06:54.567Z,3.75
2022-07-26T01:09:21.362Z,6.95
2022-07-26T01:11:47.886Z,8.13
2022-07-26T01:14:14.521Z,4.60
2022-07-26T01:16:41.239Z,6.78
2022-07-26T01:19:08.016Z,6.85
2022-07-26T01:21:34.563Z,6.05
2022-07-26T01:24:01.678Z,6.38
2022-07-26T01:26:28.322Z,5.47
2022-07-26T01:28:54.891Z,5.00
2022-07-26T01:31:21.599Z,6.10
2022-07-26T01:33:48.519Z,5.55
2022-07-26T01:36:15.334Z,8.05
2022-07-26T01:38:42.167Z,6.78
2022-07-26T01:41:09.473Z,9.57
2022-07-26T01:43:37.275Z,6.72
2022-07-26T01:46:05.835Z,4.80
2022-07-26T01:48:46.694Z,5.95
2022-07-26T01:51:13.223Z,12.50
2022-07-26T01:53:39.726Z,9.52
2022-07-26T01:56:06.537Z,6.88
2022-07-26T01:58:33.090Z,9.43
2022-07-26T02:00:59.670Z,10.18
2022-07-26T02:03:26.242Z,8.63
2022-07-26T02:05:52.755Z,5.57
2022-07-26T02:08:19.327Z,5.18
2022-07-26T02:11:02.021Z,7.80
2022-07-26T02:13:39.622Z,10.68
2022-07-26T02:16:13.697Z,7.35
2022-07-26T02:18:43.004Z,9.63
2022-07-26T02:21:09.678Z,6.88
2022-07-26T02:23:36.428Z,9.57
2022-07-26T02:26:08.024Z,8.90
2022-07-26T02:28:34.459Z,7.28
2022-07-26T02:31:00.918Z,8.13
2022-07-26T02:33:27.666Z,8.05
2022-07-26T02:35:54.139Z,7.80
2022-07-26T02:38:20.570Z,8.20
2022-07-26T02:40:47.083Z,11.43
2022-07-26T02:43:13.562Z,5.97
2022-07-26T02:45:40.048Z,6.38
2022-07-26T02:48:07.153Z,6.00
2022-07-26T02:50:33.987Z,7.93
2022-07-26T02:53:00.738Z,11.65
2022-07-26T02:55:27.633Z,8.00
2022-07-26T02:57:54.795Z,5.90
2022-07-26T03:00:25.582Z,5.78
2022-07-26T03:02:52.378Z,9.00
2022-07-26T03:05:19.587Z,7.10
2022-07-26T03:07:46.742Z,6.35
2022-07-26T03:10:13.455Z,7.30
2022-07-26T03:12:40.021Z,9.50
2022-07-26T03:15:06.918Z,8.30
2022-07-26T03:17:33.682Z,6.90
2022-07-26T03:20:00.104Z,4.70
2022-07-26T03:22:26.718Z,7.38
2022-07-26T03:24:53.270Z,5.07
2022-07-26T03:27:19.745Z,5.68
2022-07-26T03:29:46.356Z,4.18
2022-07-26T03:32:12.908Z,7.55
2022-07-26T03:34:39.335Z,4.32
2022-07-26T03:37:05.867Z,5.85
2022-07-26T03:39:32.443Z,5.35
2022-07-26T03:41:59.053Z,6.07
2022-07-26T03:44:25.528Z,3.47
2022-07-26T03:46:51.980Z,7.35
2022-07-26T03:49:19.008Z,5.53
2022-07-26T03:51:45.617Z,7.05
2022-07-26T03:54:12.514Z,7.60
2022-07-26T03:56:40.233Z,8.98
2022-07-26T03:59:09.515Z,7.85
2022-07-26T04:01:41.673Z,6.40
2022-07-26T04:04:09.787Z,6.82
2022-07-26T04:06:36.954Z,11.43
2022-07-26T04:09:05.434Z,5.47
2022-07-26T04:11:32.877Z,6.95
2022-07-26T04:14:00.048Z,11.48
2022-07-26T04:16:26.654Z,11.13
2022-07-26T04:18:54.444Z,7.13
2022-07-26T04:21:21.268Z,8.38
2022-07-26T04:23:51.108Z,6.13
2022-07-26T04:26:18.952Z,11.27
2022-07-26T04:28:45.477Z,9.57
2022-07-26T04:31:12.238Z,8.13
2022-07-26T04:33:38.843Z,9.60
2022-07-26T04:36:05.604Z,7.82
2022-07-26T04:38:32.227Z,7.63
2022-07-26T04:40:58.698Z,12.23
2022-07-26T04:43:25.260Z,11.60
2022-07-26T04:45:51.883Z,11.32
2022-07-26T04:48:18.406Z,6.97
2022-07-26T04:50:44.893Z,8.60
2022-07-26T04:53:11.358Z,15.43
2022-07-26T04:55:38.353Z,9.10
2022-07-26T04:58:04.867Z,7.97
2022-07-26T05:00:31.843Z,9.93
2022-07-26T05:03:00.515Z,5.78
2022-07-26T05:05:30.341Z,8.95
2022-07-26T05:07:59.421Z,9.27
2022-07-26T05:10:37.810Z,10.40
2022-07-26T05:13:06.420Z,8.95
2022-07-26T05:15:35.292Z,10.93
2022-07-26T05:18:08.196Z,7.45
2022-07-26T05:20:38.001Z,14.30
2022-07-26T05:23:04.804Z,11.55
2022-07-26T05:25:31.312Z,10.77
2022-07-26T05:27:57.841Z,14.07
2022-07-26T05:30:24.299Z,7.95
2022-07-26T05:32:50.826Z,13.30
2022-07-26T05:35:17.392Z,12.15
2022-07-26T05:37:43.991Z,7.10
2022-07-26T05:40:10.964Z,8.18
2022-07-26T05:42:37.656Z,11.80
2022-07-26T05:45:05.783Z,9.82
2022-07-26T05:47:32.865Z,7.18
2022-07-26T05:49:59.603Z,6.97
2022-07-26T05:52:26.250Z,10.02
2022-07-26T05:54:52.888Z,6.40
2022-07-26T05:57:19.409Z,5.88
2022-07-26T05:59:45.876Z,6.00
2022-07-26T06:02:12.449Z,2.92
2022-07-26T06:04:39.363Z,5.93
2022-07-26T06:07:06.025Z,8.38
2022-07-26T06:09:32.685Z,4.15
2022-07-26T06:11:59.628Z,14.65
2022-07-26T06:14:26.515Z,7.25
2022-07-26T06:16:53.082Z,9.25
2022-07-26T06:19:19.801Z,9.77
2022-07-26T06:21:46.278Z,4.65
2022-07-26T06:24:13.318Z,8.80
2022-07-26T06:26:40.039Z,8.63
2022-07-26T06:29:06.517Z,7.15
2022-07-26T06:31:33.224Z,8.77
2022-07-26T06:33:59.720Z,7.18
2022-07-26T06:36:31.046Z,11.02
2022-07-26T06:38:58.233Z,13.80
2022-07-26T06:41:24.966Z,8.45
2022-07-26T06:43:51.505Z,10.30
2022-07-26T06:46:19.350Z,7.90
2022-07-26T06:48:47.626Z,6.25
2022-07-26T06:51:19.484Z,5.35
2022-07-26T06:53:45.968Z,2.63
2022-07-26T06:56:14.825Z,5.10
2022-07-26T06:58:42.195Z,3.95
2022-07-26T07:01:08.851Z,4.00
2022-07-26T07:03:35.449Z,4.80
2022-07-26T07:06:02.041Z,3.60
2022-07-26T07:08:29.005Z,2.70
2022-07-26T07:10:56.671Z,4.03
2022-07-26T07:13:23.887Z,4.65
2022-07-26T07:15:50.386Z,3.90
2022-07-26T07:18:17.289Z,2.95
2022-07-26T07:20:43.771Z,3.92
2022-07-26T07:23:10.250Z,4.00
2022-07-26T07:25:36.744Z,3.80
2022-07-26T07:28:04.042Z,1.92
2022-07-26T07:30:30.559Z,4.55
2022-07-26T07:32:56.977Z,1.77
2022-07-26T07:35:23.625Z,10.88
2022-07-26T07:37:52.663Z,1.95
2022-07-26T07:40:21.269Z,5.93
2022-07-26T07:42:47.768Z,5.10
2022-07-26T07:45:14.819Z,4.65
2022-07-26T07:47:41.420Z,2.65
2022-07-26T07:50:10.784Z,3.28
2022-07-26T07:52:37.271Z,6.53
2022-07-26T07:55:36.969Z,5.53
2022-07-26T07:57:51.086Z,5.05
2022-07-26T08:00:19.452Z,8.95
2022-07-26T08:02:53.894Z,5.25
2022-07-26T08:05:20.568Z,4.85
2022-07-26T08:07:48.469Z,2.15
2022-07-26T08:10:15.126Z,2.45
2022-07-26T08:12:41.666Z,2.47
2022-07-26T08:15:09.073Z,1.33
2022-07-26T08:17:38.073Z,3.35
2022-07-26T08:20:08.929Z,2.25
2022-07-26T08:22:42.974Z,1.85
2022-07-26T08:25:09.969Z,4.95
2022-07-26T08:27:40.979Z,5.25
2022-07-26T08:30:08.617Z,3.63
2022-07-26T08:32:35.773Z,4.70
2022-07-26T08:35:16.863Z,1.20
2022-07-26T08:37:44.546Z,0.85
2022-07-26T08:40:11.000Z,5.65
2022-07-26T08:42:37.533Z,2.33
2022-07-26T08:45:04.363Z,1.63
2022-07-26T08:47:37.793Z,4.47
2022-07-26T08:50:09.604Z,3.33
2022-07-26T08:52:39.906Z,2.28
2022-07-26T08:55:06.917Z,1.33
2022-07-26T08:57:34.237Z,1.83
2022-07-26T09:00:17.970Z,1.05
2022-07-26T09:02:44.715Z,2.00
2022-07-26T09:05:12.189Z,2.53
2022-07-26T09:07:40.144Z,1.88
2022-07-26T09:10:12.266Z,1.23
2022-07-26T09:12:39.616Z,2.40
2022-07-26T09:15:17.059Z,1.75
2022-07-26T09:17:49.625Z,2.90
2022-07-26T09:20:27.910Z,2.28
2022-07-26T09:23:13.896Z,0.98
2022-07-26T09:25:42.861Z,1.50
2022-07-26T09:28:27.191Z,5.47
2022-07-26T09:30:59.072Z,3.38
2022-07-26T09:33:28.649Z,1.85
2022-07-26T09:36:06.727Z,1.15
2022-07-26T09:38:43.488Z,2.83
2022-07-26T09:41:20.859Z,2.03
2022-07-26T09:43:53.203Z,2.22
2022-07-26T09:46:22.279Z,5.70
2022-07-26T09:51:42.117Z,2.25
2022-07-26T09:54:10.920Z,0.80
2022-07-26T09:56:47.938Z,2.83
2022-07-26T09:59:18.143Z,1.00
2022-07-26T10:01:45.572Z,3.90
2022-07-26T10:04:13.550Z,1.10
2022-07-26T10:06:41.036Z,2.88
2022-07-26T10:09:08.953Z,0.98
2022-07-26T10:11:44.336Z,3.45
2022-07-26T10:14:46.060Z,0.73
2022-07-26T10:17:35.194Z,1.70
2022-07-26T10:20:17.073Z,2.00
2022-07-26T10:22:52.326Z,1.55
2022-07-26T10:25:18.980Z,3.30
2022-07-26T10:27:54.434Z,1.25
2022-07-26T10:30:22.994Z,1.48
2022-07-26T10:33:03.520Z,4.53
2022-07-26T10:35:32.866Z,3.15
2022-07-26T10:38:26.693Z,3.47
2022-07-26T10:40:56.189Z,0.75
2022-07-26T10:43:40.106Z,2.35
2022-07-26T10:46:13.421Z,1.60
2022-07-26T10:49:03.323Z,1.45
2022-07-26T10:51:34.227Z,2.30
2022-07-26T10:54:06.387Z,1.67
2022-07-26T10:56:34.049Z,1.38
2022-07-26T10:59:01.640Z,2.15
2022-07-26T11:01:41.013Z,2.88
2022-07-26T11:04:21.842Z,1.40
2022-07-26T11:06:48.546Z,2.72
2022-07-26T11:09:15.913Z,2.70
2022-07-26T11:11:46.362Z,4.07
2022-07-26T11:14:16.444Z,1.75
2022-07-26T11:16:50.181Z,2.17
2022-07-26T11:19:21.435Z,2.10
2022-07-26T11:24:28.472Z,1.75
2022-07-26T11:26:55.724Z,1.45
2022-07-26T11:29:39.088Z,1.35
2022-07-26T11:32:28.174Z,3.05
2022-07-26T11:35:03.025Z,1.85
2022-07-26T11:37:29.886Z,2.50
2022-07-26T11:39:56.479Z,2.00
2022-07-26T11:42:23.051Z,2.95
2022-07-26T11:44:50.300Z,5.07
2022-07-26T11:47:20.138Z,3.28
2022-07-26T11:50:01.227Z,1.75
2022-07-26T11:52:33.705Z,3.35
2022-07-26T11:55:00.305Z,2.53
2022-07-26T12:02:43.153Z,3.88
2022-07-26T12:05:21.707Z,3.55
2022-07-26T12:07:59.668Z,0.82
2022-07-26T12:10:27.690Z,1.90
2022-07-26T12:13:11.672Z,3.25
2022-07-26T12:16:04.886Z,3.05
2022-07-26T12:21:08.405Z,1.73
2022-07-26T12:23:49.825Z,2.22
2022-07-26T12:26:27.607Z,1.42
2022-07-26T12:28:55.279Z,3.55
2022-07-26T12:31:30.907Z,3.28
2022-07-26T12:33:58.145Z,2.22
2022-07-26T12:36:27.567Z,2.90
2022-07-26T12:38:57.163Z,3.83
2022-07-26T12:41:35.933Z,4.95
2022-07-26T12:44:04.015Z,3.10
2022-07-26T12:46:35.141Z,2.08
2022-07-26T12:49:02.458Z,2.90
2022-07-26T12:51:29.037Z,2.72
2022-07-26T12:53:55.555Z,2.70
2022-07-26T12:56:22.019Z,3.20
2022-07-26T12:58:48.457Z,2.60
2022-07-26T13:01:15.105Z,5.80
2022-07-26T13:03:41.640Z,5.20
2022-07-26T13:06:08.131Z,4.70
2022-07-26T13:08:34.693Z,2.38
2022-07-26T13:11:01.278Z,4.60
2022-07-26T13:13:27.997Z,7.15
2022-07-26T13:15:54.408Z,5.60
2022-07-26T13:18:20.887Z,5.72
2022-07-26T13:20:47.322Z,4.28
2022-07-26T13:23:20.150Z,4.25
2022-07-26T13:25:48.875Z,5.22
2022-07-26T13:28:16.897Z,3.17
2022-07-26T13:30:43.743Z,1.88
2022-07-26T13:33:10.497Z,3.10
2022-07-26T13:35:39.207Z,4.05
2022-07-26T13:38:07.775Z,4.80
2022-07-26T13:40:34.230Z,2.75
2022-07-26T13:43:00.762Z,1.73
2022-07-26T13:45:29.091Z,2.80
2022-07-26T13:47:56.643Z,2.70
2022-07-26T13:50:23.143Z,3.40
2022-07-26T13:52:49.804Z,1.55
2022-07-26T13:55:16.254Z,4.70
2022-07-26T13:57:55.637Z,2.45
2022-07-26T14:00:23.174Z,2.23
2022-07-26T14:02:49.772Z,2.08
2022-07-26T14:05:16.292Z,1.60
2022-07-26T14:07:43.458Z,4.38
2022-07-26T14:10:09.972Z,2.92
2022-07-26T14:12:37.936Z,2.13
2022-07-26T14:15:11.265Z,7.72
2022-07-26T14:17:39.800Z,4.05
2022-07-26T14:20:07.086Z,7.15
2022-07-26T14:22:33.587Z,2.40
2022-07-26T14:25:00.133Z,5.22
2022-07-26T14:27:26.722Z,12.50
2022-07-26T14:29:53.223Z,10.25
2022-07-26T14:32:22.159Z,3.90
2022-07-26T14:34:49.550Z,9.27
2022-07-26T14:37:43.571Z,4.97
2022-07-26T14:40:04.296Z,5.07
2022-07-26T14:42:30.898Z,4.45
2022-07-26T14:44:57.459Z,5.15
2022-07-26T14:47:23.972Z,6.50
2022-07-26T14:49:50.745Z,3.13
2022-07-26T14:52:17.473Z,3.22
2022-07-26T14:54:44.011Z,6.65
2022-07-26T14:57:10.487Z,5.85
2022-07-26T14:59:36.922Z,6.00
2022-07-26T15:02:05.844Z,2.78
2022-07-26T15:04:32.770Z,5.38
2022-07-26T15:06:59.762Z,8.43
2022-07-26T15:09:26.226Z,6.30
2022-07-26T15:11:53.241Z,4.18
2022-07-26T15:14:19.688Z,4.97
2022-07-26T15:16:46.263Z,4.03
2022-07-26T15:19:13.958Z,4.90
2022-07-26T15:21:40.508Z,5.68
2022-07-26T15:24:09.577Z,5.00
2022-07-26T15:26:36.283Z,2.72
2022-07-26T15:29:02.728Z,4.22
2022-07-26T15:31:37.367Z,3.95
2022-07-26T15:34:07.476Z,5.93
2022-07-26T15:36:34.558Z,7.85
2022-07-26T15:39:15.665Z,7.00
2022-07-26T15:41:42.905Z,3.78
2022-07-26T15:44:11.568Z,5.47
2022-07-26T15:49:07.849Z,4.53
2022-07-26T15:51:37.013Z,5.70
2022-07-26T15:54:04.679Z,5.20
2022-07-26T15:56:31.078Z,6.97
2022-07-26T15:58:57.554Z,9.35
2022-07-26T16:01:24.162Z,4.63
2022-07-26T16:03:50.752Z,5.43
2022-07-26T16:06:17.429Z,3.25
2022-07-26T16:09:13.500Z,7.40
2022-07-26T16:11:31.288Z,4.25
2022-07-26T16:14:01.725Z,9.25
2022-07-26T16:16:29.994Z,2.70
2022-07-26T16:18:56.887Z,3.33
2022-07-26T16:21:23.932Z,5.97
2022-07-26T16:23:50.940Z,6.25
2022-07-26T16:26:17.742Z,2.10
2022-07-26T16:28:44.406Z,2.63
2022-07-26T16:31:10.860Z,4.38
2022-07-26T16:33:37.756Z,10.15
2022-07-26T16:36:12.424Z,6.07
2022-07-26T16:38:38.867Z,2.70
2022-07-26T16:41:05.391Z,3.60
2022-07-26T16:43:31.785Z,3.15
2022-07-26T16:45:58.388Z,3.88
2022-07-26T16:48:24.787Z,3.28
2022-07-26T16:50:51.284Z,2.53
2022-07-26T16:53:17.706Z,4.80
2022-07-26T16:55:45.233Z,5.03
2022-07-26T16:58:11.719Z,3.00
2022-07-26T17:00:38.291Z,5.80
2022-07-26T17:03:04.817Z,5.28
2022-07-26T17:05:31.302Z,4.57
2022-07-26T17:07:57.849Z,7.57
2022-07-26T17:10:25.389Z,4.90
2022-07-26T17:12:52.036Z,2.90
2022-07-26T17:15:18.412Z,1.92
2022-07-26T17:17:48.696Z,4.03
2022-07-26T17:20:16.318Z,2.67
2022-07-26T17:22:42.843Z,4.00
2022-07-26T17:25:10.014Z,2.33
2022-07-26T17:27:36.548Z,6.93
2022-07-26T17:30:07.302Z,5.18
2022-07-26T17:32:34.429Z,4.38
2022-07-26T17:35:01.158Z,6.47
2022-07-26T17:37:28.558Z,2.05
2022-07-26T17:39:57.315Z,5.43
2022-07-26T17:42:23.939Z,2.50
2022-07-26T17:44:50.863Z,3.13
2022-07-26T17:47:27.738Z,1.45
2022-07-26T17:50:09.049Z,4.25
2022-07-26T17:52:44.215Z,3.60
2022-07-26T17:55:10.905Z,2.90
2022-07-26T17:57:37.573Z,4.93
2022-07-26T18:00:06.705Z,1.77
2022-07-26T18:02:37.206Z,3.20
2022-07-26T18:05:05.200Z,2.40
2022-07-26T18:07:31.921Z,1.90
2022-07-26T18:09:58.896Z,3.58
2022-07-26T18:12:31.786Z,3.58
2022-07-26T18:14:58.796Z,5.38
2022-07-26T18:17:26.185Z,2.65
2022-07-26T18:19:53.072Z,10.18
2022-07-26T18:22:20.251Z,3.42
2022-07-26T18:24:47.042Z,1.60
2022-07-26T18:27:13.677Z,3.95
2022-07-26T18:29:40.697Z,2.25
2022-07-26T18:32:15.396Z,3.00
2022-07-26T18:34:46.100Z,2.05
2022-07-26T18:37:21.348Z,2.70
2022-07-26T18:39:55.440Z,5.20
2022-07-26T18:42:26.744Z,2.75
2022-07-26T18:45:00.677Z,7.30
2022-07-26T18:47:27.507Z,3.97
2022-07-26T18:49:54.468Z,2.83
2022-07-26T18:52:28.786Z,4.88
2022-07-26T18:55:07.435Z,2.47
2022-07-26T18:57:35.620Z,4.90
2022-07-26T19:00:08.197Z,2.00
2022-07-26T19:02:35.034Z,4.15
2022-07-26T19:05:01.875Z,4.45
2022-07-26T19:07:28.787Z,2.45
2022-07-26T19:09:58.543Z,4.78
2022-07-26T19:12:28.142Z,3.65
2022-07-26T19:14:59.971Z,5.10
2022-07-26T19:17:30.299Z,5.35
2022-07-26T19:20:12.645Z,2.97
2022-07-26T19:22:53.227Z,2.00
2022-07-26T19:25:27.014Z,1.08
2022-07-26T19:27:58.849Z,2.33
2022-07-26T19:30:25.969Z,3.35
2022-07-26T19:32:59.416Z,3.40
2022-07-26T19:35:28.785Z,2.92
2022-07-26T19:37:55.589Z,2.67
2022-07-26T19:40:22.550Z,3.20
2022-07-26T19:42:49.220Z,6.22
2022-07-26T19:45:18.700Z,2.75
2022-07-26T19:47:45.588Z,1.27
2022-07-26T19:50:12.432Z,4.40
2022-07-26T19:52:39.667Z,3.13
2022-07-26T19:55:07.747Z,4.13
2022-07-26T19:57:34.460Z,2.20
2022-07-26T20:00:02.757Z,3.80
2022-07-26T20:02:29.409Z,3.45
2022-07-26T20:04:55.895Z,3.75
2022-07-26T20:07:22.407Z,1.45
2022-07-26T20:09:50.293Z,2.60
2022-07-26T20:12:18.048Z,3.05
2022-07-26T20:14:45.310Z,7.53
2022-07-26T20:17:13.178Z,3.97
2022-07-26T20:19:40.323Z,4.63
2022-07-26T20:22:06.802Z,3.45
2022-07-26T20:24:33.276Z,3.10
2022-07-26T20:26:59.764Z,7.10
2022-07-26T20:29:26.228Z,2.30
2022-07-26T20:31:52.636Z,2.75
2022-07-26T20:34:19.039Z,4.55
2022-07-26T20:36:45.779Z,3.42
2022-07-26T20:39:12.672Z,2.65
2022-07-26T20:41:39.386Z,2.95
2022-07-26T20:44:05.925Z,4.45
2022-07-26T20:46:32.693Z,4.40
2022-07-26T20:48:59.273Z,3.72
2022-07-26T20:51:25.774Z,3.28
2022-07-26T20:53:52.222Z,3.08
2022-07-26T20:56:18.648Z,4.05
2022-07-26T20:58:45.070Z,2.25
2022-07-26T21:01:13.648Z,1.77
2022-07-26T21:03:40.272Z,3.58
2022-07-26T21:06:06.777Z,3.17
2022-07-26T21:08:33.191Z,3.45
2022-07-26T21:10:59.635Z,2.38
2022-07-26T21:13:26.025Z,2.28
2022-07-26T21:15:54.161Z,7.47
2022-07-26T21:18:21.330Z,5.63
2022-07-26T21:20:48.195Z,3.70
2022-07-26T21:23:17.684Z,6.53
2022-07-26T21:25:45.038Z,2.13
2022-07-26T21:28:11.473Z,2.75
2022-07-26T21:30:37.964Z,4.25
2022-07-26T21:33:04.488Z,1.83
2022-07-26T21:35:31.996Z,3.42
2022-07-26T21:37:58.417Z,4.05
2022-07-26T21:40:24.965Z,2.55
2022-07-26T21:42:51.419Z,2.13
2022-07-26T21:45:17.982Z,4.88
2022-07-26T21:47:44.481Z,3.17
2022-07-26T21:50:11.016Z,4.05
2022-07-26T21:52:37.689Z,4.85
2022-07-26T21:55:04.601Z,2.67
2022-07-26T21:57:31.066Z,4.25
2022-07-26T21:59:57.461Z,3.22
2022-07-26T22:02:23.935Z,3.08
2022-07-26T22:04:50.406Z,4.97
2022-07-26T22:07:16.813Z,3.03
2022-07-26T22:09:43.197Z,4.32
2022-07-26T22:12:10.194Z,3.58
2022-07-26T22:14:36.557Z,3.20
2022-07-26T22:17:03.066Z,3.13
2022-07-26T22:19:29.523Z,4.03
2022-07-26T22:21:56.011Z,4.22
2022-07-26T22:24:22.464Z,2.20
2022-07-26T22:26:48.887Z,2.90
2022-07-26T22:29:15.342Z,2.97
2022-07-26T22:31:41.760Z,3.92
2022-07-26T22:34:08.217Z,3.85
2022-07-26T22:36:34.625Z,2.42
2022-07-26T22:39:01.052Z,4.90
2022-07-26T22:41:27.475Z,2.92
2022-07-26T22:43:58.422Z,5.30
2022-07-26T22:46:28.221Z,2.20
2022-07-26T22:48:55.946Z,2.60
2022-07-26T22:51:22.446Z,4.30
2022-07-26T22:53:48.820Z,2.92
2022-07-26T22:56:19.580Z,3.92
2022-07-26T22:58:46.144Z,4.90
2022-07-26T23:01:12.669Z,3.03
2022-07-26T23:03:39.216Z,3.65
2022-07-26T23:06:15.979Z,4.72
2022-07-26T23:08:54.232Z,4.90
2022-07-26T23:11:20.605Z,2.92
2022-07-26T23:13:47.006Z,2.80
2022-07-26T23:16:13.513Z,2.47
2022-07-26T23:18:40.096Z,2.10
2022-07-26T23:21:06.494Z,2.15
2022-07-26T23:23:32.915Z,3.08
2022-07-26T23:26:00.247Z,2.97
2022-07-26T23:28:37.056Z,3.22
2022-07-26T23:31:10.180Z,5.72
2022-07-26T23:33:52.666Z,4.22
2022-07-26T23:36:28.267Z,2.22
2022-07-26T23:38:56.917Z,5.57
2022-07-26T23:41:24.409Z,4.05
2022-07-26T23:43:51.802Z,4.72
2022-07-26T23:46:18.470Z,5.32
2022-07-26T23:48:45.251Z,4.07
2022-07-26T23:51:12.349Z,3.92
2022-07-26T23:53:38.989Z,3.75
2022-07-26T23:56:05.583Z,3.30
2022-07-26T23:58:32.292Z,4.20
